Wingate, Indiana
Current Conditions -  °F | °C
As of 6:09 AM on Friday 24 Oct 2014 (Local Time) from KLAF Reporting Station
Light Rain Light Rain  
Wind Chill:   Ceiling: 2900
Heat Index:   Visibility: 8mi
Dew Point:   Wind: 3mph
Humidity: 93%   Direction: 120°ESE
Pressure: 30.09"   Gusts: NA
Location:  40.17°N, 87.07°W
Report Text: KLAF 241009Z AUTO 12003KT 8SM -RA BKN029 OVC039 08/07 A3009 RMK AO2 P0000 T00830072 TSNO
Loading
Personal Weather Stations






























Interactive Weather Map
Tropical Storm Tracking
New forecast layout! Learn more

10-Day Weather Forecast

Advertisements
Track Severe Weather on mobile